Belmont, Texas
Current Conditions -  °F | °C
As of 1:35 PM on Tuesday 21 Oct 2014 (Local Time) from KT20 Reporting Station
Clear Clear  
Wind Chill: 82°   Ceiling: Unl
Heat Index: 82°   Visibility: 10mi
Dew Point: 55°   Wind: 6mph
Humidity: 41%   Direction: 40°NE
Pressure: 30.02"   Gusts: NA
Location:  29.52°N, 97.68°W
Report Text: KT20 211835Z AUTO 04005KT 10SM CLR 28/13 A3002 RMK AO2 T02750130
Loading
Personal Weather Stations






























Interactive Weather Map
Tropical Storm Tracking
New forecast layout! Learn more

10-Day Weather Forecast

Advertisements
Track Severe Weather on mobile